Time;durP1;ratioP1;P1;durP2;ratioP2;P2;SDS_P1;SDS_P2;PMS_P1;PMS_P2;Temp;Humidity;BMP_temperature;BMP_pressure;BME280_temperature;BME280_humidity;BME280_pressure;Samples;Min_cycle;Max_cycle;Signal;HPM_P1;HPM_P2
2022/08/30 00:02:14;;;;;;;;;29.00;27.33;;;;;;;;6489372;46;8962;-58
2022/08/30 00:08:16;;;;;;;;;27.00;22.67;;;;;;;;6490442;31;8918;-58
2022/08/30 00:14:19;;;;;;;;;26.75;26.25;;;;;;;;6489562;31;8824;-59
2022/08/30 00:20:24;;;;;;;;;26.00;25.67;;;;;;;;6490117;31;8965;-59
2022/08/30 00:26:28;;;;;;;;;29.00;25.67;;;;;;;;6490011;39;9491;-60
2022/08/30 00:32:30;;;;;;;;;26.33;26.33;;;;;;;;6489294;39;8871;-59
2022/08/30 00:38:33;;;;;;;;;29.00;27.67;;;;;;;;6489169;46;8875;-58
2022/08/30 00:44:35;;;;;;;;;26.67;25.67;;;;;;;;6489560;46;8943;-60
2022/08/30 00:50:40;;;;;;;;;25.75;22.50;;;;;;;;6489884;39;8835;-59
2022/08/30 00:56:46;;;;;;;;;28.33;26.00;;;;;;;;6489872;31;8974;-59
2022/08/30 01:02:48;;;;;;;;;26.67;26.00;;;;;;;;6489657;31;8914;-59
2022/08/30 01:08:54;;;;;;;;;27.33;25.67;;;;;;;;6489348;39;8839;-60
2022/08/30 01:14:57;;;;;;;;;25.00;24.33;;;;;;;;6489468;39;8880;-58
2022/08/30 01:21:17;;;;;;;;;28.67;25.00;;;;;;;;6487637;31;9020;-59
2022/08/30 01:27:21;;;;;;;;;28.00;25.00;;;;;;;;6489297;39;8863;-59
2022/08/30 01:33:24;;;;;;;;;35.33;29.00;;;;;;;;6488491;39;9487;-58
2022/08/30 01:39:26;;;;;;;;;31.33;28.33;;;;;;;;6487866;46;8943;-59
2022/08/30 01:45:29;;;;;;;;;28.67;26.33;;;;;;;;6489351;39;8951;-59
2022/08/30 01:51:31;;;;;;;;;25.00;24.33;;;;;;;;6488859;31;8880;-60
2022/08/30 01:57:34;;;;;;;;;26.00;24.33;;;;;;;;6488397;46;8895;-59
2022/08/30 02:03:36;;;;;;;;;27.67;22.67;;;;;;;;6489387;31;8915;-60
2022/08/30 02:09:38;;;;;;;;;30.67;26.00;;;;;;;;6489330;39;9598;-59
2022/08/30 02:15:42;;;;;;;;;26.67;25.00;;;;;;;;6489373;39;8899;-59
2022/08/30 02:21:45;;;;;;;;;25.00;21.00;;;;;;;;6488927;39;9022;-61
2022/08/30 02:27:47;;;;;;;;;24.33;24.33;;;;;;;;6488902;47;8950;-59
2022/08/30 02:33:52;;;;;;;;;26.00;24.33;;;;;;;;6489191;39;8880;-59
2022/08/30 02:39:54;;;;;;;;;27.00;26.00;;;;;;;;6491488;31;8863;-58
2022/08/30 02:45:56;;;;;;;;;34.67;29.33;;;;;;;;6491255;39;8983;-60
2022/08/30 02:51:58;;;;;;;;;27.00;24.33;;;;;;;;6489889;39;8985;-59
2022/08/30 02:58:01;;;;;;;;;29.33;25.67;;;;;;;;6490617;39;8982;-58
2022/08/30 03:04:04;;;;;;;;;26.00;24.00;;;;;;;;6491470;31;8922;-58
2022/08/30 03:10:07;;;;;;;;;34.33;26.00;;;;;;;;6489792;31;8926;-59
2022/08/30 03:16:10;;;;;;;;;24.00;22.50;;;;;;;;6490312;31;8871;-59
2022/08/30 03:22:16;;;;;;;;;31.33;27.33;;;;;;;;6490490;31;8913;-59
2022/08/30 03:28:18;;;;;;;;;28.67;26.67;;;;;;;;6491162;31;8874;-60
2022/08/30 03:34:22;;;;;;;;;24.67;23.00;;;;;;;;6490858;31;8887;-60
2022/08/30 03:40:25;;;;;;;;;25.00;25.00;;;;;;;;6489808;46;8911;-59
2022/08/30 03:46:27;;;;;;;;;28.33;26.33;;;;;;;;6490536;39;9134;-59
2022/08/30 03:52:29;;;;;;;;;23.33;22.67;;;;;;;;6489476;46;8911;-59
2022/08/30 03:58:33;;;;;;;;;21.00;20.33;;;;;;;;6490344;31;8847;-58
2022/08/30 04:05:09;;;;;;;;;28.00;26.00;;;;;;;;6466230;39;9081;-63
2022/08/30 04:11:41;;;;;;;;;25.00;23.00;;;;;;;;6488581;31;8875;-62
2022/08/30 04:18:28;;;;;;;;;18.67;18.67;;;;;;;;6489968;46;8815;-61
2022/08/30 04:25:45;;;;;;;;;25.50;23.00;;;;;;;;6489466;46;8958;-62
2022/08/30 04:32:45;;;;;;;;;19.00;18.50;;;;;;;;6487989;39;8955;-63
2022/08/30 04:55:07;;;;;;;;;22.33;21.33;;;;;;;;6489213;39;8993;-62
2022/08/30 05:02:11;;;;;;;;;21.00;18.67;;;;;;;;6489792;31;9053;-62
2022/08/30 05:09:09;;;;;;;;;26.25;22.00;;;;;;;;6489404;46;9002;-63
2022/08/30 05:16:18;;;;;;;;;22.50;21.00;;;;;;;;6489391;46;8894;-62
2022/08/30 05:23:37;;;;;;;;;19.25;18.25;;;;;;;;6489388;31;8931;-62
2022/08/30 05:30:44;;;;;;;;;24.50;21.50;;;;;;;;6489289;39;9053;-62
2022/08/30 05:53:19;;;;;;;;;23.75;21.50;;;;;;;;6487350;46;8960;-62
2022/08/30 06:00:14;;;;;;;;;22.75;19.25;;;;;;;;6487097;46;8958;-61
2022/08/30 06:07:15;;;;;;;;;23.25;21.00;;;;;;;;6487654;39;8963;-62
2022/08/30 06:29:55;;;;;;;;;20.75;20.75;;;;;;;;6481338;39;9083;-62
2022/08/30 06:37:16;;;;;;;;;24.50;21.50;;;;;;;;6479884;31;8940;-62
2022/08/30 06:44:56;;;;;;;;;25.75;24.50;;;;;;;;6478800;31;9008;-63
2022/08/30 06:52:07;;;;;;;;;34.75;31.50;;;;;;;;6478741;39;8998;-63
2022/08/30 07:13:41;;;;;;;;;20.50;20.50;;;;;;;;6481577;31;9027;-62
2022/08/30 07:19:49;;;;;;;;;22.50;19.25;;;;;;;;6482469;39;8985;-62
2022/08/30 07:25:52;;;;;;;;;24.00;22.50;;;;;;;;6483310;39;8963;-62
2022/08/30 07:32:04;;;;;;;;;20.75;20.00;;;;;;;;6480772;31;8937;-62
2022/08/30 07:38:29;;;;;;;;;15.75;15.25;;;;;;;;6485030;39;9013;-63
2022/08/30 07:44:36;;;;;;;;;21.00;19.25;;;;;;;;6478672;31;9002;-61
2022/08/30 07:50:44;;;;;;;;;16.75;16.25;;;;;;;;6402524;31;9079;-62
2022/08/30 07:56:48;;;;;;;;;21.00;20.00;;;;;;;;6438278;39;8982;-61
2022/08/30 08:02:55;;;;;;;;;20.00;19.50;;;;;;;;6485364;46;8947;-63
2022/08/30 08:09:01;;;;;;;;;20.75;17.75;;;;;;;;6485711;31;8989;-63
2022/08/30 08:15:07;;;;;;;;;20.00;20.00;;;;;;;;6467493;31;8923;-62
2022/08/30 08:21:22;;;;;;;;;21.25;19.75;;;;;;;;6481274;46;8911;-66
2022/08/30 08:27:27;;;;;;;;;22.25;21.00;;;;;;;;6481461;39;8978;-61
2022/08/30 08:33:33;;;;;;;;;21.50;19.00;;;;;;;;6483725;46;8946;-61
2022/08/30 08:39:39;;;;;;;;;22.25;20.25;;;;;;;;6485321;31;9054;-62
2022/08/30 08:46:00;;;;;;;;;21.00;20.00;;;;;;;;6485112;31;8965;-63
2022/08/30 08:58:43;;;;;;;;;22.75;21.75;;;;;;;;6485497;31;8906;-62
2022/08/30 09:04:49;;;;;;;;;20.50;19.00;;;;;;;;6484343;39;10062;-61
2022/08/30 09:11:09;;;;;;;;;26.50;23.50;;;;;;;;6483723;46;8971;-61
2022/08/30 09:17:15;;;;;;;;;16.75;15.75;;;;;;;;6469373;46;9081;-61
2022/08/30 09:23:31;;;;;;;;;14.50;12.25;;;;;;;;6481423;46;8934;-62
2022/08/30 09:29:49;;;;;;;;;20.50;17.00;;;;;;;;6483009;31;8990;-63
2022/08/30 09:36:13;;;;;;;;;19.75;16.00;;;;;;;;6481874;46;8954;-62
2022/08/30 09:42:28;;;;;;;;;19.50;16.50;;;;;;;;6481505;39;8996;-61
2022/08/30 09:48:39;;;;;;;;;10.50;10.50;;;;;;;;6482697;39;8927;-61
2022/08/30 09:55:10;;;;;;;;;20.25;16.25;;;;;;;;6483977;39;8908;-61
2022/08/30 10:01:28;;;;;;;;;22.00;20.25;;;;;;;;6484352;46;8945;-62
2022/08/30 10:08:04;;;;;;;;;17.00;15.00;;;;;;;;6483415;39;9001;-61
2022/08/30 10:14:32;;;;;;;;;19.00;15.25;;;;;;;;6483601;46;8946;-63
2022/08/30 10:20:58;;;;;;;;;19.75;19.25;;;;;;;;6484072;31;8947;-62
2022/08/30 10:27:19;;;;;;;;;20.50;17.75;;;;;;;;6483000;39;8978;-63
2022/08/30 10:33:33;;;;;;;;;19.25;18.00;;;;;;;;6486225;39;9467;-63
2022/08/30 10:39:54;;;;;;;;;22.25;17.00;;;;;;;;6485653;47;8894;-65
2022/08/30 10:46:07;;;;;;;;;23.00;18.00;;;;;;;;6484473;31;9061;-61
2022/08/30 10:52:40;;;;;;;;;22.25;22.25;;;;;;;;6486744;31;8889;-62
2022/08/30 10:58:47;;;;;;;;;16.25;15.00;;;;;;;;6487831;31;8915;-62
2022/08/30 11:05:03;;;;;;;;;13.25;13.25;;;;;;;;6488229;31;8926;-60
2022/08/30 11:11:40;;;;;;;;;21.25;20.25;;;;;;;;6487878;31;8887;-60
2022/08/30 11:17:55;;;;;;;;;24.25;21.50;;;;;;;;6488474;39;8918;-62
2022/08/30 11:24:13;;;;;;;;;25.50;23.50;;;;;;;;6471817;31;9060;-62
2022/08/30 11:30:43;;;;;;;;;30.00;29.25;;;;;;;;6487348;31;8989;-62
2022/08/30 11:36:53;;;;;;;;;24.00;23.75;;;;;;;;6484185;46;8951;-62
2022/08/30 11:43:39;;;;;;;;;15.00;15.00;;;;;;;;6486903;31;9038;-61
2022/08/30 11:50:12;;;;;;;;;15.50;14.75;;;;;;;;6488205;39;8869;-62
2022/08/30 11:56:26;;;;;;;;;15.00;15.00;;;;;;;;6487690;39;8906;-61
2022/08/30 12:02:46;;;;;;;;;21.25;21.00;;;;;;;;6487311;31;8911;-61
2022/08/30 12:08:51;;;;;;;;;17.25;14.25;;;;;;;;6487733;31;9044;-62
2022/08/30 12:15:28;;;;;;;;;18.00;18.00;;;;;;;;6485855;46;9040;-62
2022/08/30 12:21:37;;;;;;;;;18.25;14.75;;;;;;;;6485577;31;8982;-62
2022/08/30 12:27:50;;;;;;;;;16.00;15.00;;;;;;;;6486249;39;8939;-60
2022/08/30 12:33:58;;;;;;;;;15.75;15.50;;;;;;;;6486689;39;9548;-61
2022/08/30 12:40:15;;;;;;;;;15.00;14.50;;;;;;;;6487391;39;9027;-62
2022/08/30 12:46:22;;;;;;;;;21.50;19.25;;;;;;;;6487554;46;8852;-63
2022/08/30 12:52:37;;;;;;;;;17.75;17.75;;;;;;;;6487186;46;8912;-62
2022/08/30 12:58:51;;;;;;;;;18.75;15.50;;;;;;;;6487175;46;9026;-62
2022/08/30 13:04:57;;;;;;;;;18.00;17.75;;;;;;;;6486826;31;8950;-62
2022/08/30 13:11:26;;;;;;;;;20.00;16.75;;;;;;;;6486553;46;8967;-63
2022/08/30 13:17:30;;;;;;;;;16.25;14.00;;;;;;;;6486026;39;8989;-62
2022/08/30 13:23:34;;;;;;;;;15.00;14.75;;;;;;;;6487906;39;9405;-60
2022/08/30 13:29:39;;;;;;;;;15.75;15.75;;;;;;;;6481281;46;8914;-62
2022/08/30 13:35:46;;;;;;;;;17.25;17.25;;;;;;;;6486298;31;9031;-63
2022/08/30 13:41:52;;;;;;;;;35.25;34.50;;;;;;;;6484285;31;9688;-63
2022/08/30 13:47:55;;;;;;;;;19.25;15.00;;;;;;;;6479731;39;9010;-61
2022/08/30 13:53:59;;;;;;;;;20.50;19.00;;;;;;;;6484285;39;8906;-63
2022/08/30 14:00:04;;;;;;;;;17.50;15.50;;;;;;;;6486863;46;8911;-63
2022/08/30 14:06:12;;;;;;;;;15.00;15.00;;;;;;;;6487610;39;8858;-61
2022/08/30 14:12:36;;;;;;;;;31.50;29.75;;;;;;;;6488039;31;8951;-61
2022/08/30 14:18:55;;;;;;;;;53.00;44.75;;;;;;;;6487902;46;8886;-62
2022/08/30 14:25:04;;;;;;;;;44.00;37.50;;;;;;;;6487299;39;8963;-62
2022/08/30 14:31:07;;;;;;;;;16.25;15.00;;;;;;;;6487029;47;8927;-62
2022/08/30 14:37:15;;;;;;;;;20.75;18.75;;;;;;;;6487526;39;8877;-62
2022/08/30 14:43:22;;;;;;;;;16.50;16.50;;;;;;;;6487049;47;8937;-61
2022/08/30 14:49:27;;;;;;;;;16.75;16.75;;;;;;;;6487047;39;8891;-63
2022/08/30 14:55:32;;;;;;;;;16.75;16.50;;;;;;;;6487011;47;8929;-62
2022/08/30 15:01:38;;;;;;;;;21.75;20.50;;;;;;;;6487062;39;9005;-62
2022/08/30 15:07:43;;;;;;;;;23.25;20.00;;;;;;;;6486733;39;8901;-62
2022/08/30 15:13:48;;;;;;;;;18.50;18.00;;;;;;;;6486910;39;8963;-62
2022/08/30 15:19:54;;;;;;;;;17.00;17.00;;;;;;;;6486708;47;8899;-62
2022/08/30 15:25:58;;;;;;;;;16.75;15.25;;;;;;;;6487633;31;8872;-62
2022/08/30 15:32:09;;;;;;;;;21.00;18.00;;;;;;;;6483984;47;8969;-62
2022/08/30 15:38:15;;;;;;;;;16.50;15.00;;;;;;;;6486611;39;8966;-62
2022/08/30 15:44:18;;;;;;;;;24.00;17.75;;;;;;;;6488102;46;8932;-62
2022/08/30 15:50:23;;;;;;;;;17.75;16.75;;;;;;;;6489318;39;8914;-62
2022/08/30 15:56:31;;;;;;;;;18.25;17.00;;;;;;;;6488578;39;8943;-61
2022/08/30 16:02:37;;;;;;;;;18.75;18.75;;;;;;;;6488188;31;9441;-62
2022/08/30 16:08:43;;;;;;;;;22.25;15.00;;;;;;;;6487967;46;9035;-61
2022/08/30 16:14:50;;;;;;;;;19.50;18.75;;;;;;;;6488838;39;9524;-62
2022/08/30 16:21:15;;;;;;;;;15.75;15.00;;;;;;;;6488435;39;8875;-63
2022/08/30 16:27:20;;;;;;;;;21.75;19.00;;;;;;;;6488253;31;8923;-63
2022/08/30 16:33:29;;;;;;;;;19.50;19.25;;;;;;;;6488325;39;8962;-62
2022/08/30 16:39:39;;;;;;;;;18.75;17.50;;;;;;;;5877731;36;10001421;-62
2022/08/30 16:45:49;;;;;;;;;22.50;18.00;;;;;;;;6487625;46;9040;-61
2022/08/30 16:51:56;;;;;;;;;20.75;19.75;;;;;;;;6487989;39;8891;-62
2022/08/30 16:57:59;;;;;;;;;17.75;16.75;;;;;;;;6487762;46;8937;-62
2022/08/30 17:04:06;;;;;;;;;18.00;17.75;;;;;;;;6487078;46;8915;-62
2022/08/30 17:10:12;;;;;;;;;19.00;17.75;;;;;;;;6487981;46;8948;-62
2022/08/30 17:16:16;;;;;;;;;20.75;18.00;;;;;;;;6487826;31;8914;-64
2022/08/30 17:22:23;;;;;;;;;17.25;16.25;;;;;;;;6488234;39;8944;-62
2022/08/30 17:28:28;;;;;;;;;17.50;16.25;;;;;;;;6487952;39;8975;-63
2022/08/30 17:34:31;;;;;;;;;16.25;16.25;;;;;;;;6489046;31;8889;-61
2022/08/30 17:40:36;;;;;;;;;22.00;18.25;;;;;;;;6488080;31;9489;-62
2022/08/30 17:46:42;;;;;;;;;20.25;17.25;;;;;;;;6488604;39;8893;-62
2022/08/30 17:52:44;;;;;;;;;18.50;18.50;;;;;;;;6487444;39;8919;-60
2022/08/30 17:58:54;;;;;;;;;22.50;19.00;;;;;;;;6486888;31;9023;-62
2022/08/30 18:05:00;;;;;;;;;22.25;18.25;;;;;;;;6486801;31;8899;-62
2022/08/30 18:11:05;;;;;;;;;21.00;19.50;;;;;;;;6487688;31;9072;-61
2022/08/30 18:17:08;;;;;;;;;24.75;21.50;;;;;;;;6487534;39;8867;-63
2022/08/30 18:23:13;;;;;;;;;19.50;19.50;;;;;;;;6487616;31;8939;-62
2022/08/30 18:29:17;;;;;;;;;16.00;16.00;;;;;;;;6487454;47;8835;-62
2022/08/30 18:35:30;;;;;;;;;15.25;15.25;;;;;;;;6487027;39;8897;-62
2022/08/30 18:41:52;;;;;;;;;18.00;18.00;;;;;;;;6487005;47;8998;-62
2022/08/30 18:47:57;;;;;;;;;19.75;19.00;;;;;;;;6487667;47;8898;-62
2022/08/30 18:54:01;;;;;;;;;14.50;14.50;;;;;;;;6486704;31;8915;-61
2022/08/30 19:00:10;;;;;;;;;20.50;17.25;;;;;;;;6486689;39;9017;-61
2022/08/30 19:06:16;;;;;;;;;18.25;16.75;;;;;;;;6487319;39;8899;-61
2022/08/30 19:12:18;;;;;;;;;13.50;13.00;;;;;;;;6487064;47;8953;-62
2022/08/30 19:18:22;;;;;;;;;14.75;13.75;;;;;;;;6488550;31;9094;-62
2022/08/30 19:24:25;;;;;;;;;11.00;11.00;;;;;;;;6488666;39;9049;-61
2022/08/30 19:30:28;;;;;;;;;15.75;14.25;;;;;;;;6489598;31;8957;-62
2022/08/30 19:36:31;;;;;;;;;15.75;14.00;;;;;;;;6487645;39;8905;-61
2022/08/30 19:42:36;;;;;;;;;15.25;12.75;;;;;;;;6488016;46;8951;-62
2022/08/30 19:48:47;;;;;;;;;14.75;13.50;;;;;;;;6489120;31;9001;-62
2022/08/30 19:54:49;;;;;;;;;15.00;15.00;;;;;;;;6489676;31;9607;-61
2022/08/30 20:00:54;;;;;;;;;14.75;13.50;;;;;;;;6487897;46;8957;-61
2022/08/30 20:07:19;;;;;;;;;14.50;14.50;;;;;;;;6487683;31;8911;-62
2022/08/30 20:13:32;;;;;;;;;14.75;12.50;;;;;;;;6488911;39;8921;-62
2022/08/30 20:19:40;;;;;;;;;18.50;16.25;;;;;;;;6488678;39;9601;-61
2022/08/30 20:25:43;;;;;;;;;14.50;14.50;;;;;;;;6488414;46;8999;-61
2022/08/30 20:31:48;;;;;;;;;16.75;14.75;;;;;;;;6488309;46;9074;-61
2022/08/30 20:37:52;;;;;;;;;15.00;15.00;;;;;;;;6489286;39;8869;-61
2022/08/30 20:43:57;;;;;;;;;16.75;16.75;;;;;;;;6489726;31;8911;-62
2022/08/30 20:50:05;;;;;;;;;15.25;14.50;;;;;;;;6487641;31;8885;-62
2022/08/30 20:56:17;;;;;;;;;18.50;16.50;;;;;;;;6487613;39;8919;-62
2022/08/30 21:02:20;;;;;;;;;17.50;16.00;;;;;;;;6489054;39;8913;-61
2022/08/30 21:08:27;;;;;;;;;13.25;11.50;;;;;;;;6486735;31;8927;-61
2022/08/30 21:14:30;;;;;;;;;7.50;6.75;;;;;;;;6487874;39;9045;-62
2022/08/30 21:20:34;;;;;;;;;16.50;14.75;;;;;;;;6487585;39;8859;-60
2022/08/30 21:26:43;;;;;;;;;13.25;13.25;;;;;;;;6487579;31;8929;-62
2022/08/30 21:32:47;;;;;;;;;11.00;11.00;;;;;;;;6487492;46;8895;-62
2022/08/30 21:38:53;;;;;;;;;11.00;9.25;;;;;;;;6488184;39;8868;-62
2022/08/30 21:45:02;;;;;;;;;9.50;8.00;;;;;;;;6488386;39;8899;-62
2022/08/30 21:51:11;;;;;;;;;15.00;13.75;;;;;;;;6488787;39;8967;-62
2022/08/30 21:57:15;;;;;;;;;13.75;12.50;;;;;;;;6487154;46;8946;-62
2022/08/30 22:03:18;;;;;;;;;13.25;11.25;;;;;;;;6488373;39;8929;-61
2022/08/30 22:09:23;;;;;;;;;16.50;12.00;;;;;;;;6488396;31;8942;-62
2022/08/30 22:15:28;;;;;;;;;15.25;15.25;;;;;;;;6487853;39;8881;-61
2022/08/30 22:21:36;;;;;;;;;14.00;13.00;;;;;;;;6486758;31;8935;-61
2022/08/30 22:27:38;;;;;;;;;15.00;12.75;;;;;;;;6486449;31;8928;-62
2022/08/30 22:33:46;;;;;;;;;17.00;16.25;;;;;;;;6488081;39;8887;-61
2022/08/30 22:40:01;;;;;;;;;18.75;17.75;;;;;;;;6486808;39;8909;-61
2022/08/30 22:46:10;;;;;;;;;16.75;12.75;;;;;;;;6487587;39;8875;-61
2022/08/30 22:52:14;;;;;;;;;17.75;13.75;;;;;;;;6487438;46;8914;-61
2022/08/30 22:58:28;;;;;;;;;14.25;14.25;;;;;;;;6489612;31;9055;-61
2022/08/30 23:04:35;;;;;;;;;15.75;15.00;;;;;;;;6488821;31;8928;-61
2022/08/30 23:10:38;;;;;;;;;16.75;16.75;;;;;;;;6491086;39;8965;-62
2022/08/30 23:16:47;;;;;;;;;16.75;16.75;;;;;;;;6490188;31;8889;-62
